createdAt,value
2018-11-07T00:01:59.923Z,60.75
2018-11-07T00:04:28.344Z,61.20
2018-11-07T00:06:56.706Z,61.63
2018-11-07T00:09:25.118Z,61.55
2018-11-07T00:11:53.566Z,61.49
2018-11-07T00:14:21.975Z,61.65
2018-11-07T00:16:50.357Z,61.73
2018-11-07T00:19:18.791Z,61.14
2018-11-07T00:21:47.235Z,62.12
2018-11-07T00:24:15.674Z,61.21
2018-11-07T00:26:44.100Z,61.11
2018-11-07T00:29:12.537Z,62.21
2018-11-07T00:31:40.970Z,61.64
2018-11-07T00:34:09.410Z,62.06
2018-11-07T00:36:37.814Z,61.63
2018-11-07T00:39:07.694Z,60.89
2018-11-07T00:41:36.170Z,61.44
2018-11-07T00:44:04.795Z,61.54
2018-11-07T00:46:33.257Z,62.08
2018-11-07T00:49:01.903Z,61.97
2018-11-07T00:51:30.703Z,62.55
2018-11-07T00:53:59.155Z,62.65
2018-11-07T00:56:27.666Z,63.11
2018-11-07T00:58:56.054Z,63.00
2018-11-07T01:01:24.474Z,63.75
2018-11-07T01:03:52.903Z,62.70
2018-11-07T01:06:21.435Z,63.11
2018-11-07T01:08:50.574Z,62.11
2018-11-07T01:11:19.096Z,61.78
2018-11-07T01:13:47.635Z,61.54
2018-11-07T01:16:16.085Z,61.89
2018-11-07T01:18:44.535Z,62.00
2018-11-07T01:21:12.959Z,61.61
2018-11-07T01:23:41.383Z,62.10
2018-11-07T01:26:09.775Z,62.07
2018-11-07T01:28:38.210Z,61.48
2018-11-07T01:31:06.778Z,61.70
2018-11-07T01:33:35.178Z,62.55
2018-11-07T01:36:03.635Z,62.78
2018-11-07T01:38:32.094Z,63.44
2018-11-07T01:41:00.535Z,61.93
2018-11-07T01:43:28.980Z,61.42
2018-11-07T01:45:57.461Z,60.94
2018-11-07T01:48:25.891Z,62.17
2018-11-07T01:50:54.297Z,61.51
2018-11-07T01:53:22.718Z,61.35
2018-11-07T01:55:51.121Z,61.51
2018-11-07T01:58:19.560Z,60.69
2018-11-07T02:00:48.011Z,60.42
2018-11-07T02:03:16.439Z,60.33
2018-11-07T02:05:44.819Z,59.55
2018-11-07T02:08:13.203Z,59.38
2018-11-07T02:10:41.646Z,59.01
2018-11-07T02:13:10.103Z,59.16
2018-11-07T02:15:38.526Z,58.84
2018-11-07T02:18:07.339Z,58.96
2018-11-07T02:20:35.715Z,58.01
2018-11-07T02:23:04.098Z,58.42
2018-11-07T02:25:32.616Z,58.20
2018-11-07T02:28:01.116Z,57.07
2018-11-07T02:30:29.528Z,56.51
2018-11-07T02:32:57.893Z,56.05
2018-11-07T02:35:26.315Z,55.88
2018-11-07T02:37:54.691Z,54.93
2018-11-07T02:40:23.031Z,55.66
2018-11-07T02:42:51.398Z,55.35
2018-11-07T02:45:19.815Z,54.79
2018-11-07T02:47:48.180Z,55.19
2018-11-07T02:50:16.551Z,55.34
2018-11-07T02:52:44.948Z,55.34
2018-11-07T02:55:13.355Z,54.34
2018-11-07T02:57:41.792Z,55.17
2018-11-07T03:00:12.023Z,54.87
2018-11-07T03:02:40.593Z,55.20
2018-11-07T03:05:09.199Z,55.00
2018-11-07T03:07:38.403Z,55.75
2018-11-07T03:10:08.414Z,53.95
2018-11-07T03:12:36.872Z,53.47
2018-11-07T03:15:05.602Z,53.18
2018-11-07T03:17:34.003Z,51.59
2018-11-07T03:20:02.408Z,51.49
2018-11-07T03:22:30.784Z,51.30
2018-11-07T03:24:59.201Z,53.37
2018-11-07T03:27:27.595Z,56.92
2018-11-07T03:29:55.946Z,56.43
2018-11-07T03:32:24.428Z,56.99
2018-11-07T03:34:52.830Z,57.40
2018-11-07T03:37:21.241Z,56.22
2018-11-07T03:39:49.777Z,56.67
2018-11-07T03:42:18.099Z,57.40
2018-11-07T03:44:46.520Z,59.65
2018-11-07T03:47:14.943Z,58.39
2018-11-07T03:49:43.326Z,56.04
2018-11-07T03:52:11.727Z,58.21
2018-11-07T03:54:40.151Z,58.53
2018-11-07T03:57:08.551Z,59.27
2018-11-07T03:59:36.968Z,58.28
2018-11-07T04:02:05.522Z,58.94
2018-11-07T04:04:34.005Z,56.90
2018-11-07T04:07:02.403Z,55.11
2018-11-07T04:09:30.854Z,54.78
2018-11-07T04:11:59.234Z,54.51
2018-11-07T04:14:27.640Z,55.09
2018-11-07T04:16:56.069Z,54.99
2018-11-07T04:19:24.503Z,56.97
2018-11-07T04:21:52.975Z,55.32
2018-11-07T04:24:21.424Z,54.98
2018-11-07T04:26:49.863Z,55.42
2018-11-07T04:29:18.298Z,57.12
2018-11-07T04:31:46.771Z,56.18
2018-11-07T04:34:15.260Z,55.72
2018-11-07T04:36:43.679Z,53.12
2018-11-07T04:39:12.167Z,51.61
2018-11-07T04:41:40.707Z,53.07
2018-11-07T04:44:09.222Z,54.55
2018-11-07T04:46:37.656Z,52.95
2018-11-07T04:49:06.063Z,53.76
2018-11-07T04:51:34.501Z,51.96
2018-11-07T04:54:02.924Z,52.46
2018-11-07T04:56:31.344Z,52.21
2018-11-07T04:58:59.671Z,52.91
2018-11-07T05:01:28.125Z,52.90
2018-11-07T05:03:56.683Z,52.34
2018-11-07T05:06:25.089Z,52.33
2018-11-07T05:08:53.600Z,52.30
2018-11-07T05:11:22.059Z,51.34
2018-11-07T05:13:50.515Z,52.28
2018-11-07T05:16:19.241Z,52.60
2018-11-07T05:18:47.695Z,52.38
2018-11-07T05:21:16.226Z,52.24
2018-11-07T05:23:44.728Z,51.23
2018-11-07T05:26:13.230Z,50.53
2018-11-07T05:28:41.595Z,52.53
2018-11-07T05:31:10.020Z,51.59
2018-11-07T05:33:38.448Z,52.24
2018-11-07T05:36:07.252Z,52.60
2018-11-07T05:38:35.708Z,53.29
2018-11-07T05:41:04.143Z,52.35
2018-11-07T05:43:32.530Z,55.03
2018-11-07T05:46:01.194Z,54.08
2018-11-07T05:48:29.589Z,52.43
2018-11-07T05:50:57.943Z,52.17
2018-11-07T05:53:26.361Z,53.23
2018-11-07T05:55:54.855Z,55.74
2018-11-07T05:58:23.617Z,54.76
2018-11-07T06:00:52.004Z,54.26
2018-11-07T06:03:20.458Z,54.37
2018-11-07T06:05:48.862Z,53.70
2018-11-07T06:08:17.310Z,53.14
2018-11-07T06:10:45.747Z,53.72
2018-11-07T06:13:14.171Z,52.91
2018-11-07T06:15:42.570Z,52.36
2018-11-07T06:18:10.972Z,52.79
2018-11-07T06:20:39.425Z,51.96
2018-11-07T06:23:07.819Z,52.79
2018-11-07T06:25:36.343Z,52.75
2018-11-07T06:28:04.743Z,51.57
2018-11-07T06:30:33.087Z,53.08
2018-11-07T06:33:01.588Z,52.83
2018-11-07T06:35:29.980Z,53.09
2018-11-07T06:37:58.454Z,51.95
2018-11-07T06:40:26.867Z,52.63
2018-11-07T06:42:55.353Z,50.66
2018-11-07T06:45:23.804Z,53.02
2018-11-07T06:47:52.212Z,53.68
2018-11-07T06:50:20.740Z,53.32
2018-11-07T06:52:49.169Z,53.04
2018-11-07T06:55:17.649Z,52.50
2018-11-07T06:57:46.083Z,53.32
2018-11-07T07:00:16.175Z,53.63
2018-11-07T07:02:45.550Z,53.71
2018-11-07T07:05:14.168Z,54.73
2018-11-07T07:07:42.688Z,56.55
2018-11-07T07:10:14.795Z,55.00
2018-11-07T07:12:43.243Z,56.75
2018-11-07T07:15:13.603Z,57.61
2018-11-07T07:17:42.187Z,57.18
2018-11-07T07:20:15.398Z,56.57
2018-11-07T07:22:44.476Z,57.07
2018-11-07T07:25:13.436Z,56.74
2018-11-07T07:27:42.738Z,57.24
2018-11-07T07:30:13.122Z,57.01
2018-11-07T07:32:42.459Z,57.41
2018-11-07T07:35:11.033Z,58.50
2018-11-07T07:37:39.471Z,58.55
2018-11-07T07:40:10.269Z,57.30
2018-11-07T07:42:39.672Z,57.37
2018-11-07T07:45:11.491Z,58.89
2018-11-07T07:47:40.335Z,58.29
2018-11-07T07:50:10.363Z,59.15
2018-11-07T07:52:39.002Z,57.85
2018-11-07T07:55:07.959Z,56.37
2018-11-07T07:57:36.951Z,57.56
2018-11-07T08:00:10.062Z,55.41
2018-11-07T08:02:38.667Z,55.06
2018-11-07T08:05:07.235Z,56.26
2018-11-07T08:07:35.688Z,55.57
2018-11-07T08:10:05.122Z,55.54
2018-11-07T08:12:33.572Z,56.06
2018-11-07T08:15:01.993Z,54.63
2018-11-07T08:17:30.411Z,54.95
2018-11-07T08:19:58.843Z,53.20
2018-11-07T08:22:27.247Z,53.59
2018-11-07T08:24:55.771Z,53.33
2018-11-07T08:27:24.183Z,51.34
2018-11-07T08:29:52.771Z,50.35
2018-11-07T08:32:21.167Z,50.29
2018-11-07T08:34:49.641Z,48.65
2018-11-07T08:37:18.276Z,49.70
2018-11-07T08:39:46.691Z,49.17
2018-11-07T08:42:15.220Z,48.44
2018-11-07T08:44:43.577Z,46.68
2018-11-07T08:47:11.944Z,47.01
2018-11-07T08:49:40.317Z,46.32
2018-11-07T08:52:08.773Z,45.66
2018-11-07T08:54:37.195Z,44.85
2018-11-07T08:57:05.829Z,44.76
2018-11-07T08:59:34.175Z,42.72
2018-11-07T09:02:02.565Z,41.18
2018-11-07T09:04:30.915Z,38.68
2018-11-07T09:06:59.351Z,39.02
2018-11-07T09:09:27.740Z,39.33
2018-11-07T09:11:56.176Z,38.25
2018-11-07T09:14:24.531Z,38.21
2018-11-07T09:16:52.955Z,38.98
2018-11-07T09:19:21.373Z,38.54
2018-11-07T09:21:49.794Z,37.50
2018-11-07T09:24:18.293Z,37.65
2018-11-07T09:26:46.624Z,37.18
2018-11-07T09:29:15.153Z,36.08
2018-11-07T09:31:43.594Z,35.53
2018-11-07T09:34:12.341Z,35.46
2018-11-07T09:36:40.771Z,36.38
2018-11-07T09:39:10.308Z,36.34
2018-11-07T09:41:38.803Z,36.03
2018-11-07T09:44:07.550Z,35.26
2018-11-07T09:46:36.119Z,33.46
2018-11-07T09:49:04.628Z,32.83
2018-11-07T09:51:33.039Z,31.17
2018-11-07T09:54:02.327Z,34.36
2018-11-07T09:56:30.749Z,34.79
2018-11-07T09:58:59.327Z,35.50
2018-11-07T10:01:27.768Z,36.38
2018-11-07T10:03:56.192Z,35.80
2018-11-07T10:06:24.658Z,36.62
2018-11-07T10:08:53.019Z,35.58
2018-11-07T10:11:21.483Z,37.64
2018-11-07T10:13:49.860Z,38.92
2018-11-07T10:16:18.251Z,38.75
2018-11-07T10:18:46.635Z,39.56
2018-11-07T10:21:15.092Z,38.90
2018-11-07T10:23:43.456Z,39.14
2018-11-07T10:26:11.787Z,39.82
2018-11-07T10:28:40.332Z,40.90
2018-11-07T10:31:08.547Z,42.53
2018-11-07T10:33:36.954Z,42.40
2018-11-07T10:36:05.352Z,41.82
2018-11-07T10:38:33.839Z,40.86
2018-11-07T10:41:02.263Z,41.10
2018-11-07T10:43:30.695Z,41.55
2018-11-07T10:45:59.186Z,41.79
2018-11-07T10:48:27.633Z,43.10
2018-11-07T10:50:56.019Z,43.13
2018-11-07T10:53:24.535Z,42.07
2018-11-07T10:55:52.949Z,43.11
2018-11-07T10:58:21.347Z,43.16
2018-11-07T11:00:55.842Z,43.75
2018-11-07T11:03:28.568Z,44.79
2018-11-07T11:05:57.035Z,43.29
2018-11-07T11:08:25.470Z,43.86
2018-11-07T11:10:53.939Z,44.86
2018-11-07T11:13:22.579Z,45.20
2018-11-07T11:15:51.011Z,43.41
2018-11-07T11:18:19.331Z,44.92
2018-11-07T11:20:47.639Z,45.16
2018-11-07T11:23:16.055Z,44.44
2018-11-07T11:25:44.491Z,44.00
2018-11-07T11:28:13.015Z,44.14
2018-11-07T11:30:41.416Z,43.27
2018-11-07T11:33:09.797Z,43.82
2018-11-07T11:35:38.213Z,43.14
2018-11-07T11:38:06.759Z,43.08
2018-11-07T11:40:35.135Z,43.48
2018-11-07T11:43:03.403Z,42.26
2018-11-07T11:45:31.923Z,40.97
2018-11-07T11:48:00.273Z,39.60
2018-11-07T11:50:28.714Z,37.48
2018-11-07T11:52:57.104Z,35.99
2018-11-07T11:55:25.507Z,34.69
2018-11-07T11:57:53.987Z,34.67
2018-11-07T12:00:22.571Z,34.91
2018-11-07T12:02:51.000Z,35.83
2018-11-07T12:05:20.039Z,35.83
2018-11-07T12:07:48.490Z,34.36
2018-11-07T12:10:22.189Z,33.84
2018-11-07T12:12:51.834Z,34.29
2018-11-07T12:15:21.303Z,34.09
2018-11-07T12:17:49.823Z,32.97
2018-11-07T12:20:18.435Z,33.24
2018-11-07T12:22:46.964Z,34.09
2018-11-07T12:25:16.139Z,33.28
2018-11-07T12:27:44.779Z,32.83
2018-11-07T12:30:15.228Z,33.73
2018-11-07T12:32:45.731Z,33.19
2018-11-07T12:35:14.675Z,33.54
2018-11-07T12:37:43.307Z,32.82
2018-11-07T12:40:12.272Z,32.47
2018-11-07T12:42:40.807Z,35.40
2018-11-07T12:45:10.271Z,33.27
2018-11-07T12:47:39.061Z,33.32
2018-11-07T12:50:09.486Z,33.05
2018-11-07T12:52:37.879Z,33.18
2018-11-07T12:55:06.979Z,32.52
2018-11-07T12:57:36.025Z,33.61
2018-11-07T13:00:04.652Z,32.91
2018-11-07T13:02:33.164Z,34.73
2018-11-07T13:05:01.649Z,34.94
2018-11-07T13:07:30.911Z,33.29
2018-11-07T13:09:59.372Z,32.25
2018-11-07T13:12:27.844Z,33.73
2018-11-07T13:14:56.273Z,37.52
2018-11-07T13:17:24.718Z,39.44
2018-11-07T13:19:53.143Z,38.71
2018-11-07T13:22:21.767Z,39.58
2018-11-07T13:24:50.234Z,40.61
2018-11-07T13:27:18.656Z,41.10
2018-11-07T13:29:47.275Z,41.81
2018-11-07T13:32:15.680Z,41.60
2018-11-07T13:34:44.132Z,40.03
2018-11-07T13:37:12.811Z,40.18
2018-11-07T13:39:40.949Z,40.79
2018-11-07T13:42:09.448Z,40.22
2018-11-07T13:44:37.899Z,41.03
2018-11-07T13:47:06.452Z,40.35
2018-11-07T13:49:34.899Z,42.16
2018-11-07T13:52:03.452Z,42.93
2018-11-07T13:54:31.891Z,42.19
2018-11-07T13:57:00.341Z,42.26
2018-11-07T13:59:28.809Z,41.30
2018-11-07T14:01:57.243Z,42.77
2018-11-07T14:04:25.683Z,42.87
2018-11-07T14:06:54.267Z,41.79
2018-11-07T14:09:22.710Z,42.74
2018-11-07T14:11:51.090Z,42.68
2018-11-07T14:14:19.534Z,42.09
2018-11-07T14:16:48.024Z,43.59
2018-11-07T14:19:16.534Z,45.07
2018-11-07T14:21:44.990Z,42.73
2018-11-07T14:24:13.455Z,43.02
2018-11-07T14:26:41.976Z,43.44
2018-11-07T14:29:10.429Z,42.43
2018-11-07T14:31:38.896Z,43.13
2018-11-07T14:34:07.387Z,44.05
2018-11-07T14:36:35.760Z,42.49
2018-11-07T14:39:05.491Z,40.93
2018-11-07T14:41:33.850Z,43.34
2018-11-07T14:44:02.356Z,44.31
2018-11-07T14:46:30.814Z,45.84
2018-11-07T14:48:59.230Z,47.74
2018-11-07T14:51:27.599Z,48.02
2018-11-07T14:53:56.057Z,48.26
2018-11-07T14:56:24.487Z,50.77
2018-11-07T14:58:52.998Z,51.73
2018-11-07T15:01:21.395Z,53.38
2018-11-07T15:03:49.849Z,52.88
2018-11-07T15:06:18.255Z,52.19
2018-11-07T15:08:46.726Z,52.69
2018-11-07T15:11:15.167Z,52.65
2018-11-07T15:13:43.582Z,51.92
2018-11-07T15:16:12.011Z,53.52
2018-11-07T15:18:40.432Z,51.63
2018-11-07T15:21:08.855Z,51.68
2018-11-07T15:23:37.351Z,54.44
2018-11-07T15:26:05.983Z,55.15
2018-11-07T15:28:34.419Z,52.84
2018-11-07T15:31:02.967Z,53.69
2018-11-07T15:33:31.451Z,55.03
2018-11-07T15:36:00.011Z,53.82
2018-11-07T15:38:28.391Z,54.00
2018-11-07T15:40:56.843Z,53.16
2018-11-07T15:43:25.291Z,53.49
2018-11-07T15:45:53.690Z,54.79
2018-11-07T15:48:22.096Z,56.75
2018-11-07T15:50:55.963Z,56.90
2018-11-07T15:53:24.418Z,56.88
2018-11-07T15:55:52.829Z,55.27
2018-11-07T15:58:21.266Z,56.50
2018-11-07T16:00:49.766Z,55.08
2018-11-07T16:03:24.754Z,55.44
2018-11-07T16:05:53.365Z,56.88
2018-11-07T16:08:21.899Z,56.15
2018-11-07T16:10:50.366Z,55.55
2018-11-07T16:13:18.887Z,57.91
2018-11-07T16:15:47.356Z,56.69
2018-11-07T16:18:15.822Z,55.63
2018-11-07T16:20:44.369Z,57.74
2018-11-07T16:23:12.731Z,57.92
2018-11-07T16:25:41.149Z,56.71
2018-11-07T16:28:09.595Z,57.19
2018-11-07T16:30:38.072Z,57.70
2018-11-07T16:33:06.491Z,56.48
2018-11-07T16:35:34.924Z,56.32
2018-11-07T16:38:03.483Z,56.80
2018-11-07T16:40:31.895Z,56.06
2018-11-07T16:43:00.226Z,56.81
2018-11-07T16:45:28.644Z,53.96
2018-11-07T16:47:57.111Z,55.48
2018-11-07T16:50:25.540Z,56.28
2018-11-07T16:52:53.988Z,55.17
2018-11-07T16:55:22.434Z,56.72
2018-11-07T16:57:50.991Z,55.45
2018-11-07T17:00:20.607Z,54.81
2018-11-07T17:02:49.696Z,55.22
2018-11-07T17:05:18.571Z,55.32
2018-11-07T17:07:47.273Z,54.19
2018-11-07T17:10:16.027Z,56.45
2018-11-07T17:12:44.592Z,56.68
2018-11-07T17:15:13.097Z,56.42
2018-11-07T17:17:41.507Z,54.59
2018-11-07T17:20:11.419Z,54.75
2018-11-07T17:22:39.910Z,55.07
2018-11-07T17:25:10.025Z,54.46
2018-11-07T17:27:38.928Z,55.98
2018-11-07T17:30:08.314Z,56.72
2018-11-07T17:32:36.835Z,54.43
2018-11-07T17:35:06.355Z,54.07
2018-11-07T17:37:34.780Z,55.65
2018-11-07T17:40:04.006Z,55.21
2018-11-07T17:42:32.416Z,56.26
2018-11-07T17:45:00.814Z,54.07
2018-11-07T17:47:29.198Z,51.87
2018-11-07T17:49:57.643Z,53.04
2018-11-07T17:52:26.059Z,53.72
2018-11-07T17:54:54.502Z,54.89
2018-11-07T17:57:22.905Z,52.85
2018-11-07T17:59:51.277Z,53.55
2018-11-07T18:02:19.702Z,53.73
2018-11-07T18:04:48.138Z,50.12
2018-11-07T18:07:16.759Z,49.29
2018-11-07T18:09:45.225Z,48.00
2018-11-07T18:12:13.725Z,48.02
2018-11-07T18:14:42.103Z,47.09
2018-11-07T18:17:11.281Z,48.24
2018-11-07T18:19:40.362Z,47.40
2018-11-07T18:22:09.130Z,47.53
2018-11-07T18:24:37.643Z,47.43
2018-11-07T18:27:06.375Z,46.64
2018-11-07T18:29:34.922Z,47.33
2018-11-07T18:32:04.435Z,47.20
2018-11-07T18:34:35.996Z,47.77
2018-11-07T18:37:05.131Z,50.05
2018-11-07T18:39:33.843Z,47.45
2018-11-07T18:42:02.286Z,48.15
2018-11-07T18:44:30.756Z,47.44
2018-11-07T18:46:59.224Z,48.78
2018-11-07T18:49:27.635Z,49.86
2018-11-07T18:51:56.073Z,49.48
2018-11-07T18:54:24.515Z,48.63
2018-11-07T18:56:53.072Z,47.83
2018-11-07T18:59:21.386Z,50.99
2018-11-07T19:01:49.824Z,49.42
2018-11-07T19:04:18.370Z,50.16
2018-11-07T19:06:46.905Z,50.09
2018-11-07T19:09:15.210Z,52.15
2018-11-07T19:11:43.642Z,51.86
2018-11-07T19:14:12.067Z,49.96
2018-11-07T19:16:40.525Z,48.94
2018-11-07T19:19:08.982Z,50.88
2018-11-07T19:21:37.392Z,50.37
2018-11-07T19:24:05.859Z,49.46
2018-11-07T19:26:34.319Z,47.53
2018-11-07T19:29:02.726Z,54.63
2018-11-07T19:31:31.173Z,56.10
2018-11-07T19:33:59.599Z,57.87
2018-11-07T19:36:28.049Z,57.05
2018-11-07T19:38:56.523Z,58.51
2018-11-07T19:41:24.933Z,56.63
2018-11-07T19:43:53.345Z,57.79
2018-11-07T19:46:21.781Z,56.13
2018-11-07T19:48:50.259Z,57.01
2018-11-07T19:51:18.627Z,57.27
2018-11-07T19:53:47.106Z,58.80
2018-11-07T19:56:15.448Z,58.15
2018-11-07T19:58:43.882Z,57.49
2018-11-07T20:01:12.311Z,56.98
2018-11-07T20:03:40.756Z,57.15
2018-11-07T20:06:09.162Z,58.63
2018-11-07T20:08:37.621Z,58.23
2018-11-07T20:11:06.105Z,58.48
2018-11-07T20:13:34.532Z,59.47
2018-11-07T20:16:02.983Z,58.54
2018-11-07T20:18:31.415Z,59.32
2018-11-07T20:20:59.875Z,58.06
2018-11-07T20:23:28.350Z,58.53
2018-11-07T20:25:56.755Z,59.73
2018-11-07T20:28:25.178Z,60.10
2018-11-07T20:30:53.687Z,59.30
2018-11-07T20:33:22.044Z,58.09
2018-11-07T20:35:50.598Z,55.46
2018-11-07T20:38:18.884Z,57.28
2018-11-07T20:40:47.297Z,59.50
2018-11-07T20:43:15.738Z,58.03
2018-11-07T20:45:44.159Z,59.37
2018-11-07T20:48:12.535Z,57.85
2018-11-07T20:50:40.903Z,57.65
2018-11-07T20:53:09.351Z,54.60
2018-11-07T20:55:37.850Z,54.46
2018-11-07T20:58:06.450Z,53.08
2018-11-07T21:00:34.782Z,53.66
2018-11-07T21:03:03.135Z,53.55
2018-11-07T21:05:31.480Z,54.12
2018-11-07T21:07:59.844Z,55.47
2018-11-07T21:10:28.146Z,54.48
2018-11-07T21:12:56.480Z,55.54
2018-11-07T21:15:24.890Z,56.56
2018-11-07T21:17:53.374Z,56.24
2018-11-07T21:20:21.808Z,57.47
2018-11-07T21:22:51.644Z,57.20
2018-11-07T21:25:20.095Z,57.51
2018-11-07T21:27:48.493Z,57.68
2018-11-07T21:30:16.883Z,57.67
2018-11-07T21:32:45.451Z,58.63
2018-11-07T21:35:13.977Z,59.04
2018-11-07T21:37:42.498Z,60.39
2018-11-07T21:40:12.762Z,60.07
2018-11-07T21:42:41.221Z,59.62
2018-11-07T21:45:10.822Z,59.65
2018-11-07T21:47:39.636Z,60.08
2018-11-07T21:50:09.236Z,61.11
2018-11-07T21:52:37.898Z,59.42
2018-11-07T21:55:06.695Z,62.01
2018-11-07T21:57:35.311Z,61.66
2018-11-07T22:00:03.938Z,61.53
2018-11-07T22:02:32.381Z,62.57
2018-11-07T22:05:00.809Z,62.44
2018-11-07T22:07:29.227Z,57.84
2018-11-07T22:09:57.643Z,56.59
2018-11-07T22:12:26.090Z,56.18
2018-11-07T22:14:54.558Z,58.43
2018-11-07T22:17:23.000Z,58.12
2018-11-07T22:19:51.526Z,57.99
2018-11-07T22:22:20.091Z,58.60
2018-11-07T22:24:48.515Z,60.02
2018-11-07T22:27:17.099Z,60.64
2018-11-07T22:29:45.658Z,61.22
2018-11-07T22:32:14.157Z,64.10
2018-11-07T22:34:42.695Z,65.23
2018-11-07T22:37:11.143Z,63.99
2018-11-07T22:39:39.559Z,61.24
2018-11-07T22:42:08.003Z,59.53
2018-11-07T22:44:36.458Z,60.77
2018-11-07T22:47:04.903Z,61.75
2018-11-07T22:49:33.347Z,58.87
2018-11-07T22:52:01.816Z,60.49
2018-11-07T22:54:30.247Z,62.30
2018-11-07T22:56:58.651Z,60.32
2018-11-07T22:59:27.103Z,62.40
2018-11-07T23:01:55.548Z,62.01
2018-11-07T23:04:23.995Z,63.44
2018-11-07T23:06:52.431Z,63.42
2018-11-07T23:09:20.847Z,63.21
2018-11-07T23:11:49.478Z,64.69
2018-11-07T23:14:17.924Z,64.41
2018-11-07T23:16:46.454Z,64.46
2018-11-07T23:19:14.932Z,63.31
2018-11-07T23:21:43.355Z,64.56
2018-11-07T23:24:29.456Z,64.85
2018-11-07T23:26:57.924Z,63.25
2018-11-07T23:29:26.354Z,65.19
2018-11-07T23:31:54.838Z,63.50
2018-11-07T23:34:23.263Z,64.39
2018-11-07T23:36:51.696Z,64.55
2018-11-07T23:39:20.096Z,62.67
2018-11-07T23:41:48.497Z,64.61
2018-11-07T23:44:16.855Z,64.70
2018-11-07T23:46:45.312Z,65.67
2018-11-07T23:49:13.767Z,64.21
2018-11-07T23:51:47.467Z,64.12
2018-11-07T23:54:16.335Z,64.90
2018-11-07T23:56:44.735Z,64.95
2018-11-07T23:59:13.190Z,63.30
